| time (UTC) | temp C | wind direction | speed KPH | gust KPH | rain 1hr cm | rain 24hr cm | rain mn cm | humidity % | barometer mb |
| 20260508054638 | 3 | 0 | 0.0 | 0.0 | 0.00 | 0.36 | 0.00 | 95 | 1017.1 |
| 20260508051640 | 3 | 275 | 1.6 | 3.2 | 0.00 | 0.36 | 0.00 | 95 | 1017.3 |
| 20260508044638 | 3 | 306 | 1.6 | 3.2 | 0.00 | 0.36 | 0.00 | 95 | 1017.2 |
| 20260508041641 | 3 | 292 | 1.6 | 3.2 | 0.00 | 0.36 | 0.00 | 95 | 1017.3 |
| 20260508031639 | 3 | 275 | 1.6 | 3.2 | 0.00 | 0.36 | 0.36 | 94 | 1017.1 |
| 20260508021638 | 4 | 0 | 0.0 | 0.0 | 0.00 | 0.36 | 0.36 | 94 | 1017.4 |
| 20260508014638 | 4 | 270 | 1.6 | 3.2 | 0.05 | 0.36 | 0.36 | 93 | 1017.2 |
| 20260508011641 | 5 | 268 | 1.6 | 3.2 | 0.08 | 0.36 | 0.36 | 93 | 1017.2 |
| 20260508004638 | 5 | 259 | 1.6 | 4.8 | 0.03 | 0.30 | 0.30 | 92 | 1017.0 |
| 20260508001640 | 5 | 268 | 1.6 | 4.8 | 0.00 | 0.28 | 0.28 | 92 | 1016.4 |
| 20260507234439 | 5 | 262 | 3.2 | 6.4 | 0.03 | 0.28 | 0.28 | 91 | 1016.1 |
| 20260507231238 | 5 | 250 | 3.2 | 11.3 | 0.08 | 0.28 | 0.28 | 89 | 1016.1 |
| 20260507224038 | 6 | 262 | 3.2 | 11.3 | 0.05 | 0.25 | 0.25 | 86 | 1015.9 |
| 20260507222438 | 7 | 258 | 3.2 | 6.4 | 0.00 | 0.20 | 0.20 | 78 | 1015.7 |
| 20260507220838 | 8 | 273 | 3.2 | 9.7 | 0.00 | 0.20 | 0.20 | 73 | 1015.4 |
| 20260507220041 | 8 | 259 | 4.8 | 9.7 | 0.00 | 0.20 | 0.20 | 72 | 1015.5 |
| 20260507215240 | 8 | 284 | 4.8 | 9.7 | 0.00 | 0.20 | 0.20 | 71 | 1015.4 |
| 20260507214438 | 8 | 257 | 3.2 | 6.4 | 0.00 | 0.20 | 0.20 | 73 | 1015.2 |
| 20260507213639 | 8 | 270 | 4.8 | 9.7 | 0.00 | 0.20 | 0.20 | 72 | 1015.1 |
| 20260507213238 | 8 | 266 | 4.8 | 9.7 | 0.00 | 0.20 | 0.20 | 72 | 1015.2 |
| 20260507212839 | 8 | 266 | 4.8 | 9.7 | 0.00 | 0.20 | 0.20 | 72 | 1015.2 |
| 20260507212038 | 8 | 266 | 3.2 | 9.7 | 0.00 | 0.20 | 0.20 | 73 | 1015.2 |
| 20260507211838 | 8 | 266 | 3.2 | 9.7 | 0.00 | 0.20 | 0.20 | 73 | 1015.2 |
| 20260507211439 | 8 | 279 | 4.8 | 9.7 | 0.00 | 0.23 | 0.20 | 72 | 1015.1 |
| 20260507211239 | 8 | 279 | 4.8 | 9.7 | 0.00 | 0.23 | 0.20 | 72 | 1015.1 |
| 20260507211138 | 8 | 279 | 4.8 | 9.7 | 0.00 | 0.23 | 0.20 | 72 | 1015.1 |
| 20260507211040 | 8 | 279 | 4.8 | 9.7 | 0.00 | 0.23 | 0.20 | 72 | 1015.1 |
| 20260507210800 | 8 | 274 | 3.2 | 11.3 | 0.00 | 0.23 | 0.20 | 73 | 1015.0 |
| 20260507210658 | 8 | 274 | 3.2 | 11.3 | 0.00 | 0.23 | 0.20 | 73 | 1015.0 |
| 20260507210600 | 8 | 274 | 3.2 | 11.3 | 0.00 | 0.23 | 0.20 | 73 | 1015.0 |
| 20260507205842 | 8 | 265 | 4.8 | 11.3 | 0.00 | 0.23 | 0.20 | 74 | 1015.0 |
| 20260507205442 | 8 | 268 | 4.8 | 11.3 | 0.00 | 0.23 | 0.20 | 74 | 1014.9 |
| 20260507205043 | 8 | 283 | 4.8 | 9.7 | 0.00 | 0.23 | 0.20 | 76 | 1014.9 |
| 20260507204642 | 8 | 283 | 4.8 | 9.7 | 0.00 | 0.23 | 0.20 | 76 | 1014.9 |
| 20260507204442 | 8 | 252 | 3.2 | 6.4 | 0.00 | 0.23 | 0.20 | 74 | 1014.7 |
| 20260507204242 | 8 | 252 | 3.2 | 6.4 | 0.00 | 0.23 | 0.20 | 74 | 1014.7 |
| 20260507204145 | 8 | 252 | 3.2 | 6.4 | 0.00 | 0.23 | 0.20 | 74 | 1014.7 |
| 20260507204042 | 8 | 252 | 3.2 | 6.4 | 0.00 | 0.23 | 0.20 | 74 | 1014.7 |
| 20260507203710 | 8 | 287 | 3.2 | 9.7 | 0.00 | 0.23 | 0.20 | 75 | 1014.8 |
| 20260507203331 | 8 | 294 | 1.6 | 9.7 | 0.00 | 0.23 | 0.20 | 75 | 1014.5 |
| 20260507203127 | 8 | 294 | 1.6 | 9.7 | 0.00 | 0.23 | 0.20 | 75 | 1014.5 |
| 20260507202727 | 8 | 271 | 4.8 | 20.9 | 0.00 | 0.23 | 0.20 | 75 | 1014.8 |
| 20260507202528 | 8 | 271 | 4.8 | 20.9 | 0.00 | 0.23 | 0.20 | 75 | 1014.8 |
| 20260507202329 | 8 | 271 | 4.8 | 20.9 | 0.00 | 0.23 | 0.20 | 75 | 1014.8 |
| 20260507200700 | 9 | 275 | 4.8 | 12.9 | 0.00 | 0.23 | 0.20 | 71 | 1014.6 |
| 20260507195101 | 8 | 260 | 3.2 | 11.3 | 0.00 | 0.23 | 0.20 | 71 | 1014.9 |
| 20260507193500 | 8 | 288 | 3.2 | 9.7 | 0.00 | 0.23 | 0.20 | 72 | 1014.6 |
| 20260507193100 | 8 | 279 | 3.2 | 9.7 | 0.00 | 0.23 | 0.20 | 75 | 1014.6 |
| 20260507192700 | 7 | 283 | 1.6 | 6.4 | 0.00 | 0.23 | 0.20 | 77 | 1014.6 |
| 20260507191900 | 7 | 289 | 1.6 | 6.4 | 0.00 | 0.23 | 0.20 | 79 | 1014.8 |
| 20260507191702 | 7 | 289 | 1.6 | 6.4 | 0.00 | 0.23 | 0.20 | 79 | 1014.8 |
| 20260507191502 | 7 | 286 | 1.6 | 6.4 | 0.00 | 0.23 | 0.20 | 79 | 1014.9 |
| 20260507191100 | 7 | 286 | 1.6 | 6.4 | 0.00 | 0.23 | 0.20 | 79 | 1014.9 |
| 20260507191000 | 7 | 286 | 1.6 | 6.4 | 0.00 | 0.23 | 0.20 | 79 | 1014.9 |
| 20260507190900 | 7 | 332 | 3.2 | 14.5 | 0.00 | 0.23 | 0.20 | 80 | 1014.9 |
| 20260507190800 | 7 | 332 | 3.2 | 14.5 | 0.00 | 0.23 | 0.20 | 80 | 1014.9 |
| 20260507190700 | 7 | 332 | 3.2 | 14.5 | 0.00 | 0.23 | 0.20 | 80 | 1014.9 |
| 20260507190501 | 7 | 332 | 3.2 | 14.5 | 0.00 | 0.23 | 0.20 | 80 | 1014.9 |
| 20260507185110 | 7 | 341 | 4.8 | 11.3 | 0.00 | 0.23 | 0.20 | 81 | 1014.5 |
| 20260507183510 | 7 | 326 | 4.8 | 11.3 | 0.00 | 0.23 | 0.20 | 79 | 1014.7 |
| 20260507181910 | 10 | 302 | 6.4 | 22.5 | 0.00 | 0.23 | 0.20 | 69 | 1014.3 |
| 20260507181110 | 10 | 300 | 9.7 | 22.5 | 0.00 | 0.23 | 0.20 | 66 | 1014.6 |
| 20260507180710 | 11 | 279 | 6.4 | 16.1 | 0.00 | 0.23 | 0.20 | 59 | 1014.2 |
| 20260507180310 | 12 | 255 | 4.8 | 9.7 | 0.00 | 0.23 | 0.20 | 55 | 1014.1 |
| 20260507175910 | 12 | 255 | 4.8 | 9.7 | 0.00 | 0.23 | 0.20 | 55 | 1014.1 |
| 20260507175709 | 11 | 267 | 3.2 | 9.7 | 0.00 | 0.23 | 0.20 | 63 | 1014.3 |
| 20260507175510 | 11 | 267 | 3.2 | 9.7 | 0.00 | 0.23 | 0.20 | 63 | 1014.3 |
| 20260507175409 | 11 | 267 | 3.2 | 9.7 | 0.00 | 0.23 | 0.20 | 63 | 1014.3 |
| 20260507175310 | 11 | 267 | 3.2 | 9.7 | 0.00 | 0.23 | 0.20 | 63 | 1014.3 |
| 20260507175209 | 11 | 267 | 3.2 | 9.7 | 0.00 | 0.23 | 0.20 | 63 | 1014.3 |
| 20260507173440 | 10 | 263 | 3.2 | 11.3 | 0.00 | 0.23 | 0.20 | 69 | 1014.5 |
| 20260507170440 | 10 | 270 | 3.2 | 11.3 | 0.00 | 0.28 | 0.20 | 76 | 1014.8 |
| 20260507160441 | 7 | 263 | 3.2 | 9.7 | 0.20 | 0.41 | 0.20 | 91 | 1015.2 |
| 20260507150442 | 7 | 264 | 0.0 | 3.2 | 0.00 | 0.36 | 0.00 | 89 | 1015.5 |
| 20260507140441 | 7 | 291 | 0.0 | 3.2 | 0.00 | 0.61 | 0.00 | 88 | 1015.8 |
| 20260507130441 | 6 | 261 | 1.6 | 4.8 | 0.00 | 0.74 | 0.00 | 92 | 1015.9 |
| 20260507120442 | 5 | 257 | 1.6 | 4.8 | 0.00 | 0.84 | 0.00 | 95 | 1015.8 |
| 20260507110441 | 5 | 277 | 0.0 | 3.2 | 0.00 | 0.94 | 0.00 | 96 | 1016.2 |
| 20260507100441 | 5 | 257 | 0.0 | 3.2 | 0.00 | 0.99 | 0.00 | 96 | 1015.9 |
| 20260507090440 | 5 | 113 | 0.0 | 1.6 | 0.00 | 0.99 | 0.00 | 96 | 1016.1 |
| 20260507080441 | 4 | 0 | 0.0 | 0.0 | 0.00 | 0.99 | 0.00 | 96 | 1016.3 |
| 20260507074840 | 4 | 0 | 0.0 | 0.0 | 0.00 | 0.99 | 0.00 | 96 | 1016.2 |
| 20260507073240 | 4 | 0 | 0.0 | 0.0 | 0.00 | 0.99 | 0.00 | 96 | 1016.1 |
| 20260507071640 | 4 | 0 | 0.0 | 0.0 | 0.00 | 0.99 | 0.00 | 96 | 1016.3 |
| 20260507070040 | 4 | 0 | 0.0 | 0.0 | 0.00 | 0.99 | 0.00 | 96 | 1016.4 |
| 20260507065240 | 4 | 0 | 0.0 | 0.0 | 0.00 | 0.99 | 0.00 | 96 | 1016.4 |
| 20260507064440 | 3 | 0 | 0.0 | 0.0 | 0.00 | 0.99 | 0.00 | 96 | 1016.4 |
| 20260507063640 | 3 | 0 | 0.0 | 0.0 | 0.00 | 0.99 | 0.00 | 96 | 1016.3 |
| 20260507062841 | 3 | 0 | 0.0 | 0.0 | 0.00 | 0.99 | 0.00 | 96 | 1016.5 |
| 20260507062440 | 3 | 0 | 0.0 | 0.0 | 0.00 | 0.99 | 0.00 | 96 | 1016.4 |
| 20260507062041 | 3 | 0 | 0.0 | 0.0 | 0.00 | 0.99 | 0.00 | 96 | 1016.4 |
| 20260507061641 | 3 | 0 | 0.0 | 0.0 | 0.00 | 0.99 | 0.00 | 96 | 1016.6 |
| 20260507061240 | 3 | 0 | 0.0 | 0.0 | 0.00 | 0.99 | 0.00 | 96 | 1016.7 |
| 20260507060840 | 3 | 0 | 0.0 | 0.0 | 0.00 | 0.99 | 0.00 | 96 | 1016.7 |
| 20260507060640 | 3 | 0 | 0.0 | 0.0 | 0.00 | 0.99 | 0.00 | 96 | 1016.9 |
| 20260507060441 | 3 | 0 | 0.0 | 0.0 | 0.00 | 0.99 | 0.00 | 96 | 1016.9 |
| 20260507060340 | 3 | 0 | 0.0 | 0.0 | 0.00 | 0.99 | 0.00 | 96 | 1016.9 |
| 20260507060242 | 3 | 0 | 0.0 | 0.0 | 0.00 | 0.99 | 0.00 | 96 | 1016.9 |
| 20260507060140 | 3 | 0 | 0.0 | 0.0 | 0.00 | 0.99 | 0.00 | 96 | 1016.9 |
| 20260507055407 | 3 | 0 | 0.0 | 0.0 | 0.00 | 0.99 | 0.00 | 96 | 1017.1 |